Time;durP1;ratioP1;P1;durP2;ratioP2;P2;SDS_P1;SDS_P2;PMS_P1;PMS_P2;Temp;Humidity;BMP_temperature;BMP_pressure;BME280_temperature;BME280_humidity;BME280_pressure;Samples;Min_cycle;Max_cycle;Signal;HPM_P1;HPM_P2
2023/05/28 00:00:38;;;;;;;9.80;8.80;;;12.10;99.90;;;;;;4937527;28;20752;-68
2023/05/28 00:03:06;;;;;;;9.60;8.60;;;12.10;99.90;;;;;;4942218;28;20485;-67
2023/05/28 00:05:37;;;;;;;8.87;7.90;;;12.10;99.90;;;;;;4935811;28;20491;-68
2023/05/28 00:08:05;;;;;;;13.60;9.10;;;12.00;99.90;;;;;;4935554;28;20481;-68
2023/05/28 00:10:33;;;;;;;12.73;8.70;;;12.00;99.90;;;;;;4929947;28;20474;-68
2023/05/28 00:13:01;;;;;;;11.20;8.40;;;11.90;99.90;;;;;;4950963;28;20466;-68
2023/05/28 00:15:29;;;;;;;8.77;7.87;;;11.90;99.90;;;;;;4939916;28;21108;-68
2023/05/28 00:17:58;;;;;;;11.17;8.03;;;11.90;99.90;;;;;;4938820;28;20470;-68
2023/05/28 00:20:26;;;;;;;9.27;8.20;;;11.90;99.90;;;;;;4935937;28;20479;-68
2023/05/28 00:22:54;;;;;;;11.70;8.20;;;11.80;99.90;;;;;;4937582;28;20589;-68
2023/05/28 00:25:22;;;;;;;11.80;8.33;;;11.80;99.90;;;;;;4938219;28;20581;-68
2023/05/28 00:27:50;;;;;;;10.30;7.97;;;11.80;99.90;;;;;;4943470;28;20545;-68
2023/05/28 00:30:18;;;;;;;10.93;8.83;;;11.80;99.90;;;;;;4940750;28;20477;-68
2023/05/28 00:32:46;;;;;;;12.00;9.07;;;11.70;99.90;;;;;;4934758;28;20478;-68
2023/05/28 00:35:16;;;;;;;11.43;8.07;;;11.70;99.90;;;;;;4937741;28;22131;-68
2023/05/28 00:37:44;;;;;;;9.10;8.20;;;11.70;99.90;;;;;;4943997;28;20544;-68
2023/05/28 00:40:15;;;;;;;10.70;7.63;;;11.60;99.90;;;;;;4943636;28;20478;-68
2023/05/28 00:42:43;;;;;;;11.23;8.37;;;11.60;99.90;;;;;;4930266;28;20474;-68
2023/05/28 00:45:12;;;;;;;10.70;8.60;;;11.60;99.90;;;;;;4928224;28;20618;-68
2023/05/28 00:47:41;;;;;;;9.97;8.43;;;11.60;99.90;;;;;;4935920;28;20482;-68
2023/05/28 00:50:10;;;;;;;9.07;8.10;;;11.50;99.90;;;;;;4933125;28;20473;-68
2023/05/28 00:52:39;;;;;;;9.23;8.33;;;11.40;99.90;;;;;;4931315;28;20880;-68
2023/05/28 00:55:16;;;;;;;10.17;8.50;;;11.50;99.90;;;;;;4938346;28;20500;-68
2023/05/28 00:57:47;;;;;;;11.37;7.93;;;11.50;99.90;;;;;;4952120;28;20559;-67
2023/05/28 01:00:16;;;;;;;10.20;8.80;;;11.50;99.90;;;;;;4930151;28;24306;-67
2023/05/28 01:02:44;;;;;;;10.30;8.63;;;11.40;99.90;;;;;;4931927;28;20489;-68
2023/05/28 01:05:14;;;;;;;10.13;9.10;;;11.40;99.90;;;;;;4929946;28;20501;-67
2023/05/28 01:07:43;;;;;;;10.03;8.17;;;11.40;99.90;;;;;;4953560;28;20566;-67
2023/05/28 01:10:11;;;;;;;9.73;8.03;;;11.30;99.90;;;;;;4930788;28;20480;-68
2023/05/28 01:12:40;;;;;;;9.30;7.90;;;11.30;99.90;;;;;;4930189;28;20952;-68
2023/05/28 01:15:10;;;;;;;9.87;8.20;;;11.30;99.90;;;;;;4935955;28;20508;-68
2023/05/28 01:17:39;;;;;;;10.53;8.40;;;11.20;99.90;;;;;;4936175;28;20623;-67
2023/05/28 01:20:13;;;;;;;10.60;8.57;;;11.20;99.90;;;;;;4949390;28;20508;-68
2023/05/28 01:22:47;;;;;;;11.67;8.50;;;11.20;99.90;;;;;;4943708;28;20482;-67
2023/05/28 01:25:17;;;;;;;9.97;7.93;;;11.20;99.90;;;;;;4940947;28;20593;-68
2023/05/28 01:27:46;;;;;;;10.67;8.53;;;11.20;99.90;;;;;;4937405;28;20475;-67
2023/05/28 01:30:14;;;;;;;11.23;8.37;;;11.20;99.90;;;;;;4951057;28;20481;-67
2023/05/28 01:32:42;;;;;;;10.40;8.67;;;11.10;99.90;;;;;;4944067;28;20570;-69
2023/05/28 01:35:11;;;;;;;11.13;8.23;;;11.10;99.90;;;;;;4938304;28;20504;-67
2023/05/28 01:37:49;;;;;;;9.20;8.30;;;11.00;99.90;;;;;;4939967;28;20842;-68
2023/05/28 01:40:19;;;;;;;11.30;8.50;;;11.10;99.90;;;;;;4937016;28;20489;-68
2023/05/28 01:42:48;;;;;;;9.60;8.50;;;11.10;99.90;;;;;;4941319;28;20478;-68
2023/05/28 01:45:17;;;;;;;9.50;8.50;;;11.10;99.90;;;;;;4938149;28;21105;-68
2023/05/28 01:47:45;;;;;;;10.53;8.73;;;11.00;99.90;;;;;;4938397;28;20482;-68
2023/05/28 01:50:13;;;;;;;9.50;8.50;;;11.00;99.90;;;;;;4938774;28;20647;-68
2023/05/28 01:52:49;;;;;;;9.00;8.17;;;11.00;99.90;;;;;;5098941;27;20957;-68
2023/05/28 01:55:17;;;;;;;11.10;8.97;;;11.00;99.90;;;;;;5104523;27;20562;-68
2023/05/28 01:57:45;;;;;;;11.97;8.53;;;10.90;99.90;;;;;;5074597;28;20606;-68
2023/05/28 02:00:14;;;;;;;10.30;8.90;;;10.90;99.90;;;;;;5073719;28;20504;-68
2023/05/28 02:02:43;;;;;;;9.70;8.17;;;10.80;99.90;;;;;;5073240;28;20986;-67
2023/05/28 02:05:11;;;;;;;10.20;8.43;;;10.80;99.90;;;;;;5073275;28;22048;-68
2023/05/28 02:07:39;;;;;;;9.80;8.80;;;10.80;99.90;;;;;;5077793;28;20496;-68
2023/05/28 02:10:09;;;;;;;8.87;7.87;;;10.70;99.90;;;;;;5072028;28;20499;-68
2023/05/28 02:12:37;;;;;;;8.67;7.80;;;10.70;99.90;;;;;;5071642;28;20845;-68
2023/05/28 02:15:06;;;;;;;10.17;7.97;;;10.70;99.90;;;;;;5067187;28;20503;-68
2023/05/28 02:17:35;;;;;;;10.40;8.33;;;10.70;99.90;;;;;;5079021;28;20489;-68
2023/05/28 02:20:04;;;;;;;10.83;8.80;;;10.70;99.90;;;;;;5075334;28;20600;-68
2023/05/28 02:22:32;;;;;;;10.53;8.83;;;10.70;99.90;;;;;;5075066;28;20510;-68
2023/05/28 02:25:00;;;;;;;11.27;8.10;;;10.60;99.90;;;;;;5068509;28;20930;-68
2023/05/28 02:27:29;;;;;;;8.03;7.23;;;10.60;99.90;;;;;;5074842;28;21194;-68
2023/05/28 02:29:57;;;;;;;10.43;8.00;;;10.50;99.90;;;;;;5078589;28;20964;-68
2023/05/28 02:32:25;;;;;;;10.20;7.80;;;10.50;99.90;;;;;;5079686;28;20617;-68
2023/05/28 02:34:54;;;;;;;11.60;8.43;;;10.50;99.90;;;;;;5072719;27;20493;-67
2023/05/28 02:37:23;;;;;;;10.43;7.80;;;10.50;99.90;;;;;;5071392;28;20601;-68
2023/05/28 02:39:51;;;;;;;9.97;7.63;;;10.50;99.90;;;;;;5064958;28;20658;-68
2023/05/28 02:42:20;;;;;;;9.67;8.70;;;10.40;99.90;;;;;;5068092;28;20510;-68
2023/05/28 02:44:49;;;;;;;10.17;7.60;;;10.40;99.90;;;;;;5065778;27;21204;-68
2023/05/28 02:47:17;;;;;;;12.37;8.97;;;10.40;99.90;;;;;;5066888;28;20481;-68
2023/05/28 02:49:45;;;;;;;10.70;8.50;;;10.40;99.90;;;;;;5066190;28;20478;-68
2023/05/28 02:52:13;;;;;;;8.97;8.17;;;10.30;99.90;;;;;;5070666;28;20463;-70
2023/05/28 02:54:41;;;;;;;8.73;7.63;;;10.30;99.90;;;;;;5067945;28;21620;-70
2023/05/28 02:57:09;;;;;;;8.03;7.20;;;10.30;99.90;;;;;;5068400;28;20472;-67
2023/05/28 02:59:37;;;;;;;8.47;7.67;;;10.30;99.90;;;;;;5068514;28;20541;-68
2023/05/28 03:02:06;;;;;;;10.40;7.30;;;10.20;99.90;;;;;;5066720;28;20504;-68
2023/05/28 03:04:35;;;;;;;9.50;8.50;;;10.20;99.90;;;;;;5057866;28;20492;-68
2023/05/28 03:07:03;;;;;;;8.93;7.70;;;10.20;99.90;;;;;;5057891;28;20480;-70
2023/05/28 03:09:31;;;;;;;9.33;7.60;;;10.10;99.90;;;;;;5057031;28;20464;-70
2023/05/28 03:11:59;;;;;;;8.73;7.57;;;10.10;99.90;;;;;;5057521;28;21250;-69
2023/05/28 03:14:27;;;;;;;8.97;7.77;;;10.20;99.90;;;;;;5069294;28;20492;-70
2023/05/28 03:16:55;;;;;;;10.43;8.30;;;10.10;99.90;;;;;;5055521;28;20519;-70
2023/05/28 03:19:24;;;;;;;12.33;8.77;;;10.10;99.90;;;;;;5070400;28;20481;-70
2023/05/28 03:21:52;;;;;;;8.33;7.53;;;10.10;99.90;;;;;;5054261;28;21089;-69
2023/05/28 03:24:22;;;;;;;11.27;8.40;;;10.20;99.90;;;;;;5053083;28;21604;-70
2023/05/28 03:26:50;;;;;;;9.33;8.20;;;10.20;99.90;;;;;;5056698;27;20489;-68
2023/05/28 03:29:18;;;;;;;9.67;8.70;;;10.20;99.90;;;;;;5066403;28;21503;-70
2023/05/28 03:31:47;;;;;;;10.53;8.20;;;10.10;99.90;;;;;;5060693;28;21214;-70
2023/05/28 03:34:16;;;;;;;11.40;8.50;;;10.10;99.90;;;;;;5057299;28;21091;-70
2023/05/28 03:36:45;;;;;;;9.60;8.60;;;10.10;99.90;;;;;;5061237;28;20644;-70
2023/05/28 03:39:13;;;;;;;11.50;8.80;;;10.10;99.90;;;;;;5063210;28;21841;-69
2023/05/28 03:41:41;;;;;;;9.77;8.30;;;10.10;99.90;;;;;;5059321;28;21291;-69
2023/05/28 03:44:09;;;;;;;8.80;7.87;;;10.10;99.90;;;;;;5069460;28;20495;-69
2023/05/28 03:46:37;;;;;;;9.90;8.10;;;10.10;99.90;;;;;;5057267;28;20488;-70
2023/05/28 03:49:05;;;;;;;9.80;7.80;;;10.10;99.90;;;;;;5070707;28;20522;-70
2023/05/28 03:51:33;;;;;;;11.57;8.13;;;10.10;99.90;;;;;;5056605;28;21001;-70
2023/05/28 03:54:05;;;;;;;10.60;8.53;;;10.10;99.90;;;;;;5057497;28;21353;-70
2023/05/28 03:56:34;;;;;;;9.53;7.87;;;10.10;99.90;;;;;;5065617;28;20563;-69
2023/05/28 03:59:02;;;;;;;10.00;9.00;;;10.10;99.90;;;;;;5077673;28;20473;-70
2023/05/28 04:01:30;;;;;;;11.37;8.73;;;10.10;99.90;;;;;;5050855;28;20587;-70
2023/05/28 04:03:58;;;;;;;9.63;8.67;;;10.10;99.90;;;;;;5059633;28;20488;-70
2023/05/28 04:06:30;;;;;;;9.40;8.10;;;10.20;99.90;;;;;;5053957;28;20488;-67
2023/05/28 04:08:58;;;;;;;8.37;7.53;;;10.20;99.90;;;;;;5058062;28;21070;-67
2023/05/28 04:11:28;;;;;;;11.73;8.00;;;10.20;99.90;;;;;;5064810;28;20503;-68
2023/05/28 04:13:56;;;;;;;9.60;8.10;;;10.20;99.90;;;;;;5051454;28;20492;-68
2023/05/28 04:16:25;;;;;;;9.63;8.43;;;10.30;99.90;;;;;;5054361;28;23992;-68
2023/05/28 04:18:53;;;;;;;17.43;9.63;;;10.30;99.90;;;;;;5053450;28;20569;-67
2023/05/28 04:21:22;;;;;;;11.20;9.40;;;10.40;99.90;;;;;;5053973;28;20477;-67
2023/05/28 04:23:51;;;;;;;10.33;8.80;;;10.40;99.90;;;;;;5052836;28;20589;-64
2023/05/28 04:26:22;;;;;;;12.77;8.77;;;10.40;99.90;;;;;;5058213;28;20716;-66
2023/05/28 04:28:52;;;;;;;11.40;8.50;;;10.40;99.90;;;;;;5054662;28;20553;-65
2023/05/28 04:31:21;;;;;;;13.33;8.70;;;10.40;99.90;;;;;;5062210;28;20549;-68
2023/05/28 04:33:49;;;;;;;10.57;8.97;;;10.50;99.90;;;;;;5055481;28;20488;-68
2023/05/28 04:36:18;;;;;;;11.80;9.03;;;10.60;99.90;;;;;;5046893;28;20526;-65
2023/05/28 04:38:46;;;;;;;10.97;9.00;;;10.60;99.90;;;;;;5047296;28;20877;-65
2023/05/28 04:41:15;;;;;;;9.77;8.27;;;10.60;99.90;;;;;;5054580;28;20582;-65
2023/05/28 04:43:43;;;;;;;12.47;9.30;;;10.70;99.90;;;;;;5065376;28;21072;-65
2023/05/28 04:46:13;;;;;;;10.03;9.00;;;10.70;99.90;;;;;;5057109;28;20492;-64
2023/05/28 04:48:41;;;;;;;11.27;8.80;;;10.80;99.90;;;;;;5046303;28;20468;-65
2023/05/28 04:51:09;;;;;;;11.97;9.40;;;10.80;99.90;;;;;;5054427;28;20487;-64
2023/05/28 04:53:37;;;;;;;14.20;9.73;;;10.90;99.90;;;;;;5059992;28;20489;-65
2023/05/28 04:56:06;;;;;;;14.87;9.60;;;11.00;99.90;;;;;;5052804;28;20488;-65
2023/05/28 04:58:34;;;;;;;12.13;8.40;;;11.00;99.90;;;;;;5076577;28;20522;-64
2023/05/28 05:01:04;;;;;;;11.20;8.73;;;11.10;99.90;;;;;;5061246;28;20477;-64
2023/05/28 05:03:34;;;;;;;11.90;9.07;;;11.10;99.90;;;;;;5046979;28;20512;-65
2023/05/28 05:06:02;;;;;;;13.17;9.63;;;11.20;99.90;;;;;;5055010;28;20496;-65
2023/05/28 05:08:31;;;;;;;15.33;8.97;;;11.20;99.90;;;;;;5078421;28;20469;-66
2023/05/28 05:11:01;;;;;;;16.17;8.70;;;11.20;99.90;;;;;;5064203;28;20566;-65
2023/05/28 05:13:29;;;;;;;10.73;8.70;;;11.20;99.90;;;;;;5053726;28;20473;-65
2023/05/28 05:15:57;;;;;;;11.60;9.07;;;11.30;99.90;;;;;;5050801;28;20490;-64
2023/05/28 05:18:25;;;;;;;11.10;9.23;;;11.30;99.90;;;;;;5057196;28;20476;-65
2023/05/28 05:20:55;;;;;;;9.47;8.50;;;11.40;99.90;;;;;;5064302;28;22399;-66
2023/05/28 05:23:23;;;;;;;10.50;8.93;;;11.50;99.90;;;;;;5051874;28;20565;-65
2023/05/28 05:25:51;;;;;;;10.00;8.33;;;11.60;99.90;;;;;;5056795;28;20488;-65
2023/05/28 05:28:20;;;;;;;12.77;8.97;;;11.70;99.90;;;;;;5056631;28;20472;-65
2023/05/28 05:30:48;;;;;;;9.83;8.00;;;11.80;99.90;;;;;;5064622;28;20559;-64
2023/05/28 05:33:16;;;;;;;8.43;7.53;;;11.90;99.90;;;;;;5056178;28;20473;-65
2023/05/28 05:35:44;;;;;;;9.90;7.33;;;12.00;99.90;;;;;;5058867;28;20882;-65
2023/05/28 05:38:13;;;;;;;10.93;7.20;;;12.10;99.90;;;;;;5055447;28;20469;-65
2023/05/28 05:40:42;;;;;;;11.83;7.90;;;12.20;99.90;;;;;;5062505;28;20493;-65
2023/05/28 05:43:10;;;;;;;12.93;8.77;;;12.20;99.90;;;;;;5056176;28;21891;-65
2023/05/28 05:45:39;;;;;;;10.40;7.33;;;12.30;99.90;;;;;;5057177;28;20484;-66
2023/05/28 05:48:07;;;;;;;10.70;7.10;;;12.30;99.90;;;;;;5061287;28;20546;-65
2023/05/28 05:50:48;;;;;;;8.90;6.87;;;12.40;99.90;;;;;;5059528;28;20559;-65
2023/05/28 05:53:18;;;;;;;9.60;7.73;;;12.50;99.90;;;;;;5072482;28;20548;-65
2023/05/28 05:55:46;;;;;;;10.77;7.53;;;12.50;99.90;;;;;;5058719;28;20580;-66
2023/05/28 05:58:15;;;;;;;13.40;7.60;;;12.60;99.90;;;;;;5066628;28;21000;-66
2023/05/28 06:00:43;;;;;;;9.10;7.23;;;12.70;99.90;;;;;;5083586;28;20559;-65
2023/05/28 06:03:11;;;;;;;18.83;7.33;;;12.80;99.90;;;;;;5080597;28;22796;-66
2023/05/28 06:05:41;;;;;;;11.20;6.30;;;12.90;99.90;;;;;;5075693;28;20496;-66
2023/05/28 06:08:09;;;;;;;14.77;8.20;;;13.00;99.90;;;;;;5082774;28;20460;-66
2023/05/28 06:10:39;;;;;;;7.70;6.90;;;13.00;99.90;;;;;;5080634;28;20481;-66
2023/05/28 06:13:07;;;;;;;12.20;7.93;;;13.10;99.90;;;;;;5080332;28;20972;-66
2023/05/28 06:15:36;;;;;;;10.33;7.50;;;13.10;99.90;;;;;;5075813;28;21033;-64
2023/05/28 06:18:09;;;;;;;8.50;7.10;;;13.10;99.90;;;;;;5078949;28;20961;-64
2023/05/28 06:20:40;;;;;;;12.17;8.27;;;13.30;99.90;;;;;;5078993;28;20480;-66
2023/05/28 06:23:08;;;;;;;11.63;7.50;;;13.40;99.90;;;;;;5069587;28;20524;-66
2023/05/28 06:25:37;;;;;;;11.67;7.47;;;13.50;99.90;;;;;;5073441;28;20536;-66
2023/05/28 06:28:06;;;;;;;10.93;7.53;;;13.60;99.90;;;;;;5079384;28;20555;-65
2023/05/28 06:30:35;;;;;;;11.70;7.20;;;13.60;99.90;;;;;;5080510;28;20487;-66
2023/05/28 06:33:03;;;;;;;11.67;7.33;;;13.60;99.90;;;;;;5075961;28;21056;-65
2023/05/28 06:35:31;;;;;;;8.57;6.57;;;13.60;99.90;;;;;;5079509;28;21043;-65
2023/05/28 06:37:59;;;;;;;9.90;7.13;;;13.70;99.90;;;;;;5065122;28;20994;-65
2023/05/28 06:40:27;;;;;;;10.07;6.53;;;13.70;99.90;;;;;;5054738;28;21055;-65
2023/05/28 06:42:55;;;;;;;8.40;5.97;;;13.80;99.90;;;;;;5060846;28;20498;-66
2023/05/28 06:45:25;;;;;;;14.80;6.70;;;13.90;99.90;;;;;;5057110;28;20481;-66
2023/05/28 06:47:56;;;;;;;9.80;6.43;;;14.00;99.90;;;;;;5060623;28;22360;-66
2023/05/28 06:50:24;;;;;;;11.17;6.33;;;14.10;99.90;;;;;;5064899;28;20469;-65
2023/05/28 06:52:54;;;;;;;11.60;6.40;;;14.30;99.90;;;;;;5047805;28;21008;-65
2023/05/28 06:55:22;;;;;;;8.50;6.60;;;14.40;99.90;;;;;;5053325;28;21975;-66
2023/05/28 06:57:53;;;;;;;11.17;6.37;;;14.50;99.90;;;;;;5061749;28;20499;-65
2023/05/28 07:00:21;;;;;;;9.37;6.70;;;14.60;99.90;;;;;;5051670;28;20517;-66
2023/05/28 07:02:51;;;;;;;11.67;6.70;;;14.70;99.90;;;;;;5051438;28;20927;-66
2023/05/28 07:05:19;;;;;;;8.10;6.10;;;14.80;99.90;;;;;;5033536;28;20526;-65
2023/05/28 07:07:47;;;;;;;9.23;5.77;;;14.80;99.90;;;;;;5054970;28;20924;-66
2023/05/28 07:10:15;;;;;;;7.30;6.00;;;14.90;99.90;;;;;;5054028;28;20579;-65
2023/05/28 07:12:43;;;;;;;9.70;6.33;;;14.90;99.90;;;;;;5051349;28;20469;-65
2023/05/28 07:15:12;;;;;;;7.13;5.60;;;15.00;99.90;;;;;;5054046;28;20489;-65
2023/05/28 07:17:40;;;;;;;8.03;5.50;;;15.00;99.90;;;;;;5051110;28;20489;-66
2023/05/28 07:20:11;;;;;;;8.90;5.90;;;15.00;99.90;;;;;;5057132;28;20484;-66
2023/05/28 07:22:39;;;;;;;8.87;5.70;;;15.10;99.90;;;;;;5046795;28;21055;-65
2023/05/28 07:25:08;;;;;;;9.23;5.43;;;15.10;99.90;;;;;;5046550;28;20490;-65
2023/05/28 07:27:36;;;;;;;8.27;5.20;;;15.10;99.90;;;;;;5056034;28;20500;-65
2023/05/28 07:30:04;;;;;;;10.47;5.93;;;15.20;99.90;;;;;;5060348;28;20559;-65
2023/05/28 07:32:32;;;;;;;7.70;5.40;;;15.20;99.90;;;;;;5051160;28;20683;-65
2023/05/28 07:35:00;;;;;;;7.80;5.63;;;15.30;99.90;;;;;;5053756;28;21088;-66
2023/05/28 07:37:30;;;;;;;9.50;6.03;;;15.40;99.90;;;;;;5050528;28;20522;-66
2023/05/28 07:39:58;;;;;;;10.03;5.83;;;15.50;99.90;;;;;;5054212;28;20479;-66
2023/05/28 07:42:26;;;;;;;7.80;5.47;;;15.60;99.90;;;;;;5061759;28;20465;-65
2023/05/28 07:44:54;;;;;;;6.50;5.17;;;15.70;99.90;;;;;;5051887;28;20504;-66
2023/05/28 07:47:23;;;;;;;11.30;6.43;;;15.80;99.90;;;;;;5053679;28;20977;-66
2023/05/28 07:49:51;;;;;;;6.83;4.87;;;15.80;99.90;;;;;;5077469;28;20473;-66
2023/05/28 07:52:19;;;;;;;8.27;5.07;;;15.90;99.90;;;;;;5058796;28;20529;-66
2023/05/28 07:54:49;;;;;;;7.07;4.87;;;15.90;99.90;;;;;;5059587;28;20555;-66
2023/05/28 07:57:17;;;;;;;9.30;5.00;;;16.00;99.90;;;;;;5070680;28;20472;-66
2023/05/28 07:59:45;;;;;;;6.97;4.77;;;16.10;99.90;;;;;;5049985;28;20457;-66
2023/05/28 08:02:13;;;;;;;7.47;5.10;;;16.10;99.90;;;;;;5055921;28;20474;-65
2023/05/28 08:04:41;;;;;;;6.47;4.67;;;16.20;99.90;;;;;;5056858;28;20775;-66
2023/05/28 08:07:09;;;;;;;9.03;5.83;;;16.20;99.90;;;;;;5062064;28;20464;-66
2023/05/28 08:09:38;;;;;;;11.10;5.77;;;16.30;99.90;;;;;;5055729;28;21657;-66
2023/05/28 08:12:08;;;;;;;8.90;5.17;;;16.40;99.90;;;;;;5063466;28;20511;-65
2023/05/28 08:14:36;;;;;;;7.63;5.17;;;16.50;99.90;;;;;;5049660;28;20545;-65
2023/05/28 08:17:04;;;;;;;6.10;4.30;;;16.60;99.90;;;;;;5061106;28;20509;-65
2023/05/28 08:19:32;;;;;;;8.57;4.60;;;16.70;99.90;;;;;;5046797;28;20472;-65
2023/05/28 08:22:00;;;;;;;7.70;4.53;;;16.80;99.90;;;;;;5059038;28;20477;-65
2023/05/28 08:24:28;;;;;;;11.57;4.83;;;16.80;99.90;;;;;;5056848;28;20504;-65
2023/05/28 08:26:56;;;;;;;8.07;4.40;;;16.90;99.90;;;;;;5042549;28;20495;-66
2023/05/28 08:29:26;;;;;;;6.77;4.57;;;17.00;99.90;;;;;;5056418;28;20461;-66
2023/05/28 08:31:54;;;;;;;6.40;4.33;;;17.10;99.90;;;;;;5050144;28;20473;-66
2023/05/28 08:34:22;;;;;;;6.87;4.20;;;17.10;99.90;;;;;;5048262;28;21102;-66
2023/05/28 08:36:50;;;;;;;5.83;3.97;;;17.30;99.90;;;;;;5069881;28;20642;-65
2023/05/28 08:39:18;;;;;;;6.00;3.47;;;17.40;99.90;;;;;;5065038;28;20561;-66
2023/05/28 08:41:46;;;;;;;6.80;3.67;;;17.50;99.90;;;;;;5066030;28;20468;-66
2023/05/28 08:44:14;;;;;;;6.73;4.63;;;17.50;99.90;;;;;;5058357;28;20524;-66
2023/05/28 08:46:44;;;;;;;7.10;4.63;;;17.60;99.90;;;;;;5045996;28;20472;-69
2023/05/28 08:49:15;;;;;;;8.77;4.33;;;17.70;99.90;;;;;;5052928;28;20492;-69
2023/05/28 08:51:44;;;;;;;5.70;3.90;;;17.70;99.90;;;;;;5054463;28;20604;-69
2023/05/28 08:54:13;;;;;;;7.37;3.90;;;17.80;99.90;;;;;;5044591;28;22079;-69
2023/05/28 08:56:41;;;;;;;8.00;5.47;;;17.80;99.90;;;;;;5049943;28;20490;-69
2023/05/28 08:59:12;;;;;;;6.03;4.40;;;17.90;99.90;;;;;;5056137;28;20472;-69
2023/05/28 09:01:40;;;;;;;6.87;4.17;;;17.90;99.90;;;;;;5048397;28;20499;-69
2023/05/28 09:04:10;;;;;;;7.73;4.17;;;18.10;99.90;;;;;;5046142;28;20495;-69
2023/05/28 09:06:39;;;;;;;8.03;4.10;;;18.20;99.90;;;;;;5064532;28;20524;-69
2023/05/28 09:09:07;;;;;;;6.10;3.80;;;18.30;99.90;;;;;;5051907;28;20480;-69
2023/05/28 09:11:35;;;;;;;5.23;4.37;;;18.30;99.90;;;;;;5053882;28;20483;-69
2023/05/28 09:14:11;;;;;;;8.07;4.83;;;18.40;99.90;;;;;;5048632;28;20595;-69
2023/05/28 09:16:42;;;;;;;7.67;4.40;;;18.50;99.90;;;;;;5050654;28;20497;-69
2023/05/28 09:19:15;;;;;;;6.73;4.00;;;18.50;99.90;;;;;;5047044;28;20822;-69
2023/05/28 09:21:53;;;;;;;5.93;3.90;;;18.60;99.90;;;;;;5061134;28;20473;-69
2023/05/28 09:24:22;;;;;;;6.50;4.00;;;18.60;99.90;;;;;;5053420;28;20641;-67
2023/05/28 09:26:50;;;;;;;5.00;3.93;;;18.70;99.90;;;;;;5056179;28;21103;-67
2023/05/28 09:29:21;;;;;;;5.67;3.33;;;18.80;99.90;;;;;;5052883;28;20555;-70
2023/05/28 09:31:55;;;;;;;6.50;3.70;;;19.00;99.90;;;;;;5043674;28;20479;-68
2023/05/28 09:34:28;;;;;;;5.53;3.90;;;19.10;99.90;;;;;;5059389;28;20526;-70
2023/05/28 09:37:01;;;;;;;6.73;4.00;;;19.20;99.90;;;;;;5041071;28;21459;-71
2023/05/28 09:39:29;;;;;;;7.83;3.93;;;19.20;99.90;;;;;;5042908;28;23618;-71
2023/05/28 09:42:06;;;;;;;8.50;4.47;;;19.30;99.90;;;;;;5030499;28;20483;-68
2023/05/28 09:44:34;;;;;;;6.53;3.67;;;19.30;99.90;;;;;;5039990;28;21289;-72
2023/05/28 09:47:12;;;;;;;6.73;4.60;;;19.40;99.90;;;;;;5045765;28;22755;-72
2023/05/28 09:49:44;;;;;;;9.87;4.60;;;19.50;99.90;;;;;;5065294;28;20599;-71
2023/05/28 09:52:19;;;;;;;8.13;4.83;;;19.60;99.90;;;;;;5042367;28;20706;-67
2023/05/28 09:54:51;;;;;;;6.23;4.60;;;19.70;99.90;;;;;;5051121;28;20496;-69
2023/05/28 09:57:23;;;;;;;6.90;4.37;;;19.80;99.90;;;;;;5050701;28;22979;-70
2023/05/28 09:59:56;;;;;;;5.77;4.37;;;19.80;99.90;;;;;;5043563;28;20498;-68
2023/05/28 10:02:30;;;;;;;6.00;4.17;;;19.80;99.90;;;;;;5045932;28;20587;-70
2023/05/28 10:05:06;;;;;;;5.87;4.37;;;19.80;99.90;;;;;;5065779;28;20487;-71
2023/05/28 10:07:35;;;;;;;8.97;4.47;;;19.90;99.90;;;;;;5046379;28;20475;-69
2023/05/28 10:10:04;;;;;;;5.23;3.97;;;20.00;99.90;;;;;;5041600;28;21121;-64
2023/05/28 10:12:33;;;;;;;6.67;4.10;;;20.00;99.90;;;;;;5053343;28;20476;-65
2023/05/28 10:15:01;;;;;;;6.80;4.27;;;20.00;99.90;;;;;;5056941;28;21033;-65
2023/05/28 10:17:30;;;;;;;5.97;4.00;;;20.10;99.90;;;;;;5065069;28;20476;-65
2023/05/28 10:20:00;;;;;;;5.27;4.17;;;20.20;99.90;;;;;;5059208;28;20468;-66
2023/05/28 10:22:28;;;;;;;8.43;4.47;;;20.40;99.90;;;;;;5055434;28;21194;-69
2023/05/28 10:24:57;;;;;;;5.13;4.07;;;20.60;99.90;;;;;;5054899;28;20492;-68
2023/05/28 10:27:31;;;;;;;8.10;3.80;;;20.80;99.90;;;;;;5056357;28;20927;-68
2023/05/28 10:30:03;;;;;;;5.83;4.33;;;20.90;99.90;;;;;;5062296;28;21013;-68
2023/05/28 10:32:40;;;;;;;5.43;4.60;;;21.10;99.90;;;;;;5068735;28;21250;-68
2023/05/28 10:35:12;;;;;;;7.77;4.00;;;21.20;99.90;;;;;;5056759;28;20887;-70
2023/05/28 10:37:40;;;;;;;5.03;4.50;;;21.20;99.90;;;;;;5050772;28;22190;-69
2023/05/28 10:40:10;;;;;;;9.53;5.23;;;21.20;99.90;;;;;;5051594;28;21181;-69
2023/05/28 10:42:41;;;;;;;7.43;4.73;;;21.00;99.90;;;;;;5050204;28;21672;-69
2023/05/28 10:45:11;;;;;;;6.27;4.30;;;20.90;99.90;;;;;;5045787;28;20527;-69
2023/05/28 10:47:40;;;;;;;6.77;4.60;;;21.00;99.90;;;;;;5045538;28;20876;-69
2023/05/28 10:50:14;;;;;;;8.50;5.07;;;21.00;99.90;;;;;;5041889;28;20464;-69
2023/05/28 10:53:05;;;;;;;6.43;4.47;;;21.10;99.90;;;;;;5047514;28;21135;-68
2023/05/28 10:55:49;;;;;;;6.03;4.37;;;21.10;99.90;;;;;;5062967;28;21291;-68
2023/05/28 10:58:25;;;;;;;6.60;4.10;;;21.30;99.90;;;;;;5055793;28;21230;-69
2023/05/28 11:00:58;;;;;;;6.30;3.90;;;21.40;99.90;;;;;;5060438;28;21915;-68
2023/05/28 11:03:48;;;;;;;6.23;3.80;;;21.60;99.90;;;;;;5056886;28;20696;-68
2023/05/28 11:06:18;;;;;;;5.80;3.67;;;21.80;99.90;;;;;;5065916;28;21102;-68
2023/05/28 11:08:47;;;;;;;9.40;4.93;;;22.00;99.90;;;;;;5050716;28;21015;-68
2023/05/28 11:11:20;;;;;;;7.40;4.00;;;22.10;99.90;;;;;;5059736;28;20602;-68
2023/05/28 11:13:49;;;;;;;6.03;4.87;;;22.10;99.90;;;;;;5068141;28;21196;-68
2023/05/28 11:16:19;;;;;;;5.20;4.40;;;22.10;99.90;;;;;;5056803;28;20491;-68
2023/05/28 11:19:03;;;;;;;7.73;4.40;;;22.00;99.90;;;;;;5056171;28;20993;-68
2023/05/28 11:21:33;;;;;;;8.63;4.57;;;21.90;99.90;;;;;;5051462;28;21065;-68
2023/05/28 11:24:03;;;;;;;7.90;4.70;;;21.80;99.90;;;;;;5059712;28;20874;-68
2023/05/28 11:26:31;;;;;;;7.60;4.80;;;21.70;99.90;;;;;;5067244;28;20481;-71
2023/05/28 11:29:00;;;;;;;6.90;4.47;;;21.60;99.90;;;;;;5049119;28;20531;-68
2023/05/28 11:31:29;;;;;;;5.33;4.83;;;21.60;99.90;;;;;;5044327;28;20472;-69
2023/05/28 11:33:58;;;;;;;5.50;4.70;;;21.80;99.90;;;;;;5047131;28;20488;-69
2023/05/28 11:36:26;;;;;;;8.57;5.43;;;22.00;99.90;;;;;;5048096;28;20487;-68
2023/05/28 11:39:03;;;;;;;7.30;4.93;;;22.10;99.90;;;;;;5056622;28;20465;-68
2023/05/28 11:41:32;;;;;;;7.10;4.17;;;22.10;99.90;;;;;;5062868;28;22602;-69
2023/05/28 11:44:00;;;;;;;6.70;4.80;;;21.90;99.90;;;;;;5052301;28;20851;-68
2023/05/28 11:46:28;;;;;;;4.80;4.30;;;22.00;99.90;;;;;;5054631;28;20496;-68
2023/05/28 11:48:57;;;;;;;6.73;4.23;;;21.90;99.90;;;;;;5050678;28;21021;-67
2023/05/28 11:51:25;;;;;;;5.23;4.20;;;21.90;99.90;;;;;;5047920;28;20476;-66
2023/05/28 11:53:53;;;;;;;5.60;4.50;;;22.10;99.90;;;;;;5061061;28;21060;-67
2023/05/28 11:56:22;;;;;;;6.17;4.90;;;22.40;99.90;;;;;;5072860;28;20495;-67
2023/05/28 11:58:51;;;;;;;5.70;4.33;;;22.60;99.90;;;;;;5063219;28;21063;-66
2023/05/28 12:01:19;;;;;;;8.47;4.53;;;22.70;99.90;;;;;;5049385;28;21346;-67
2023/05/28 12:03:47;;;;;;;6.43;5.00;;;22.70;99.90;;;;;;5046044;28;20511;-65
2023/05/28 12:06:15;;;;;;;7.27;4.70;;;22.50;99.90;;;;;;5054232;28;20487;-66
2023/05/28 12:08:55;;;;;;;6.33;4.40;;;22.30;99.90;;;;;;5058095;28;20976;-66
2023/05/28 12:11:28;;;;;;;6.60;5.13;;;22.20;99.90;;;;;;5051413;28;20557;-65
2023/05/28 12:13:56;;;;;;;6.23;5.20;;;22.00;99.90;;;;;;5051764;28;20508;-68
2023/05/28 12:16:25;;;;;;;6.07;4.83;;;22.10;99.90;;;;;;5053213;28;20478;-66
2023/05/28 12:19:01;;;;;;;6.27;4.73;;;22.20;99.90;;;;;;5062294;28;20760;-67
2023/05/28 12:21:29;;;;;;;7.27;4.90;;;22.40;99.90;;;;;;5059271;28;20522;-66
2023/05/28 12:23:57;;;;;;;5.13;3.90;;;22.60;99.90;;;;;;5045187;28;20497;-67
2023/05/28 12:26:25;;;;;;;6.20;4.03;;;22.90;99.90;;;;;;5047907;28;20490;-67
2023/05/28 12:28:54;;;;;;;5.90;4.17;;;23.10;99.90;;;;;;5049726;28;20503;-68
2023/05/28 12:31:28;;;;;;;5.13;3.80;;;23.30;99.90;;;;;;5048897;28;20579;-68
2023/05/28 12:33:57;;;;;;;4.63;4.23;;;23.50;99.90;;;;;;5048351;28;21058;-67
2023/05/28 12:36:25;;;;;;;5.70;4.30;;;23.50;99.90;;;;;;5057694;28;21726;-68
2023/05/28 12:38:53;;;;;;;4.67;3.90;;;23.60;99.90;;;;;;5051202;28;20465;-71
2023/05/28 12:41:21;;;;;;;5.97;4.60;;;23.60;99.90;;;;;;5045926;28;20467;-70
2023/05/28 12:43:49;;;;;;;7.23;4.60;;;23.60;99.90;;;;;;5050411;28;20480;-67
2023/05/28 12:46:18;;;;;;;5.53;4.50;;;23.70;99.90;;;;;;5054220;28;20750;-69
2023/05/28 12:48:46;;;;;;;4.90;4.10;;;23.90;99.90;;;;;;5047282;28;20477;-70
2023/05/28 12:51:16;;;;;;;7.40;4.50;;;24.00;99.90;;;;;;5053388;28;20486;-69
2023/05/28 12:53:44;;;;;;;4.70;4.23;;;24.30;99.90;;;;;;5046022;28;20492;-69